PAL24 RPLL-RPVE
Flight info
| Callsign | PAL24 |
|---|---|
| Flight time | 0h 35m |
| Altitude | 27000 |
| Route | VERDE2R VERDE W24 TAPER TAPER7B |
| Aircraft | A320/M-SDE3FGHIRWY/LB1 |
Departure
| Time | 2026-04-20 16:03 |
|---|---|
| Airport | Ninoy Aquino International Airport (RPLL) |
Arrival
| Time | 2026-04-20 16:38 |
|---|---|
| Airport | Godofredo P. Ramos Airport (RPVE) |
| Time | Latitude | Longitude | Altitude | Speed | Heading |
|---|---|---|---|---|---|
| 2026-04-20 15:42 | 14.50844 | 121.01305 | 68 ft | 0 kts | 330° |
| 2026-04-20 15:52 | 14.50843 | 121.01305 | 68 ft | 2 kts | 330° |
| 2026-04-20 15:53 | 14.50803 | 121.01329 | 62 ft | 3 kts | 330° |
| 2026-04-20 15:53 | 14.50782 | 121.01342 | 65 ft | 4 kts | 307° |
| 2026-04-20 15:53 | 14.50778 | 121.01364 | 67 ft | 4 kts | 244° |
| 2026-04-20 15:53 | 14.50774 | 121.01358 | 63 ft | 4 kts | 240° |
| 2026-04-20 15:54 | 14.50761 | 121.01335 | 64 ft | 3 kts | 240° |
| 2026-04-20 15:54 | 14.50760 | 121.01332 | 64 ft | 0 kts | 240° |
| 2026-04-20 15:56 | 14.50759 | 121.01331 | 64 ft | 1 kts | 240° |
| 2026-04-20 15:56 | 14.50757 | 121.01329 | 64 ft | 0 kts | 240° |
| 2026-04-20 15:57 | 14.50745 | 121.01317 | 64 ft | 4 kts | 217° |
| 2026-04-20 15:58 | 14.50722 | 121.01314 | 69 ft | 6 kts | 172° |
| 2026-04-20 15:58 | 14.50666 | 121.01309 | 67 ft | 7 kts | 213° |
| 2026-04-20 15:58 | 14.50641 | 121.01269 | 63 ft | 6 kts | 241° |
| 2026-04-20 15:58 | 14.50609 | 121.01211 | 65 ft | 14 kts | 240° |
| 2026-04-20 15:59 | 14.50549 | 121.01106 | 64 ft | 17 kts | 240° |
| 2026-04-20 15:59 | 14.50493 | 121.01004 | 64 ft | 17 kts | 239° |
| 2026-04-20 15:59 | 14.50435 | 121.00899 | 64 ft | 16 kts | 241° |
| 2026-04-20 15:59 | 14.50381 | 121.00802 | 59 ft | 15 kts | 239° |
| 2026-04-20 16:00 | 14.50331 | 121.00714 | 63 ft | 15 kts | 240° |
| 2026-04-20 16:00 | 14.50267 | 121.00598 | 58 ft | 20 kts | 241° |
| 2026-04-20 16:00 | 14.50193 | 121.00463 | 63 ft | 23 kts | 240° |
| 2026-04-20 16:00 | 14.50113 | 121.00320 | 66 ft | 24 kts | 240° |
| 2026-04-20 16:01 | 14.50029 | 121.00169 | 63 ft | 24 kts | 240° |
| 2026-04-20 16:01 | 14.49953 | 121.00033 | 59 ft | 12 kts | 240° |
| 2026-04-20 16:01 | 14.49905 | 120.99967 | 67 ft | 11 kts | 212° |
| 2026-04-20 16:01 | 14.49843 | 120.99983 | 66 ft | 9 kts | 149° |
| 2026-04-20 16:02 | 14.49808 | 121.00038 | 64 ft | 10 kts | 82° |
| 2026-04-20 16:02 | 14.49841 | 121.00109 | 64 ft | 11 kts | 60° |
| 2026-04-20 16:02 | 14.49895 | 121.00206 | 62 ft | 33 kts | 60° |
| 2026-04-20 16:02 | 14.50141 | 121.00650 | 65 ft | 105 kts | 60° |
| 2026-04-20 16:03 | 14.50599 | 121.01477 | 68 ft | 158 kts | 61° |
| 2026-04-20 16:03 | 14.51168 | 121.02524 | 559 ft | 170 kts | 62° |
| 2026-04-20 16:03 | 14.51754 | 121.03592 | 1277 ft | 171 kts | 60° |
| 2026-04-20 16:03 | 14.52359 | 121.04664 | 1943 ft | 179 kts | 60° |
| 2026-04-20 16:04 | 14.53023 | 121.05847 | 2278 ft | 201 kts | 60° |
| 2026-04-20 16:04 | 14.53756 | 121.07164 | 2618 ft | 223 kts | 60° |
| 2026-04-20 16:04 | 14.54383 | 121.08326 | 2934 ft | 243 kts | 65° |
| 2026-04-20 16:04 | 14.54674 | 121.10086 | 3565 ft | 258 kts | 96° |
| 2026-04-20 16:05 | 14.54054 | 121.11841 | 4392 ft | 267 kts | 124° |
| 2026-04-20 16:05 | 14.52661 | 121.13122 | 5267 ft | 273 kts | 151° |
| 2026-04-20 16:05 | 14.50920 | 121.13941 | 6176 ft | 277 kts | 156° |
| 2026-04-20 16:05 | 14.49121 | 121.14692 | 7028 ft | 281 kts | 157° |
| 2026-04-20 16:06 | 14.47286 | 121.15417 | 7871 ft | 285 kts | 162° |
| 2026-04-20 16:06 | 14.45343 | 121.15899 | 8719 ft | 289 kts | 166° |
| 2026-04-20 16:06 | 14.43351 | 121.16312 | 9560 ft | 293 kts | 167° |
| 2026-04-20 16:06 | 14.41353 | 121.16709 | 10211 ft | 304 kts | 167° |
| 2026-04-20 16:07 | 14.39203 | 121.17138 | 10471 ft | 327 kts | 167° |
| 2026-04-20 16:07 | 14.36890 | 121.17607 | 10725 ft | 348 kts | 167° |
| 2026-04-20 16:07 | 14.34483 | 121.18101 | 11272 ft | 357 kts | 167° |
| 2026-04-20 16:07 | 14.32033 | 121.18609 | 11938 ft | 361 kts | 167° |
| 2026-04-20 16:08 | 14.29552 | 121.19122 | 12606 ft | 366 kts | 169° |
| 2026-04-20 16:08 | 14.26990 | 121.19186 | 13228 ft | 373 kts | 187° |
| 2026-04-20 16:08 | 14.24420 | 121.18687 | 13865 ft | 378 kts | 190° |
| 2026-04-20 16:08 | 14.21832 | 121.18152 | 14446 ft | 381 kts | 191° |
| 2026-04-20 16:09 | 14.19223 | 121.17603 | 15037 ft | 384 kts | 191° |
| 2026-04-20 16:09 | 14.16593 | 121.17043 | 15632 ft | 387 kts | 191° |
| 2026-04-20 16:09 | 14.13950 | 121.16479 | 16229 ft | 389 kts | 191° |
| 2026-04-20 16:09 | 14.11284 | 121.15911 | 16814 ft | 392 kts | 191° |
| 2026-04-20 16:10 | 14.08603 | 121.15346 | 17378 ft | 395 kts | 191° |
| 2026-04-20 16:10 | 14.05906 | 121.14782 | 17935 ft | 397 kts | 191° |
| 2026-04-20 16:10 | 14.03192 | 121.14216 | 18450 ft | 399 kts | 191° |
| 2026-04-20 16:10 | 14.00456 | 121.13644 | 18918 ft | 401 kts | 191° |
| 2026-04-20 16:11 | 13.97711 | 121.13068 | 19378 ft | 403 kts | 191° |
| 2026-04-20 16:11 | 13.94952 | 121.12490 | 19825 ft | 406 kts | 191° |
| 2026-04-20 16:11 | 13.92178 | 121.11907 | 20276 ft | 408 kts | 191° |
| 2026-04-20 16:11 | 13.89384 | 121.11323 | 20738 ft | 410 kts | 191° |
| 2026-04-20 16:12 | 13.86583 | 121.10737 | 21182 ft | 412 kts | 191° |
| 2026-04-20 16:12 | 13.83765 | 121.10149 | 21610 ft | 414 kts | 191° |
| 2026-04-20 16:12 | 13.80929 | 121.09557 | 22053 ft | 417 kts | 191° |
| 2026-04-20 16:12 | 13.78080 | 121.08960 | 22482 ft | 419 kts | 191° |
| 2026-04-20 16:13 | 13.75223 | 121.08363 | 22902 ft | 421 kts | 191° |
| 2026-04-20 16:13 | 13.72342 | 121.07764 | 23319 ft | 423 kts | 191° |
| 2026-04-20 16:13 | 13.69448 | 121.07161 | 23692 ft | 425 kts | 191° |
| 2026-04-20 16:13 | 13.66544 | 121.06553 | 24044 ft | 427 kts | 191° |
| 2026-04-20 16:14 | 13.64301 | 121.06085 | 24317 ft | 428 kts | 191° |
| 2026-04-20 16:14 | 13.64107 | 121.06045 | 24347 ft | 428 kts | 191° |
| 2026-04-20 16:14 | 13.62334 | 121.05656 | 23638 ft | 445 kts | 193° |
| 2026-04-20 16:14 | 13.59155 | 121.04926 | 22401 ft | 483 kts | 191° |
| 2026-04-20 16:15 | 13.55877 | 121.04272 | 22356 ft | 471 kts | 187° |
| 2026-04-20 16:15 | 13.52690 | 121.04175 | 22959 ft | 448 kts | 175° |
| 2026-04-20 16:15 | 13.49692 | 121.04708 | 23479 ft | 431 kts | 164° |
| 2026-04-20 16:15 | 13.46899 | 121.05809 | 23884 ft | 430 kts | 153° |
| 2026-04-20 16:16 | 13.44342 | 121.07404 | 24287 ft | 431 kts | 147° |
| 2026-04-20 16:16 | 13.41857 | 121.09130 | 24648 ft | 432 kts | 146° |
| 2026-04-20 16:16 | 13.39370 | 121.10877 | 24904 ft | 433 kts | 146° |
| 2026-04-20 16:16 | 13.36889 | 121.12631 | 24976 ft | 433 kts | 146° |
| 2026-04-20 16:17 | 13.34406 | 121.14387 | 24987 ft | 433 kts | 146° |
| 2026-04-20 16:17 | 13.31926 | 121.16138 | 24986 ft | 433 kts | 146° |
| 2026-04-20 16:17 | 13.29446 | 121.17887 | 24986 ft | 433 kts | 146° |
| 2026-04-20 16:17 | 13.26962 | 121.19634 | 24988 ft | 433 kts | 146° |
| 2026-04-20 16:18 | 13.24536 | 121.21336 | 24989 ft | 433 kts | 147° |
| 2026-04-20 16:18 | 13.22048 | 121.23073 | 24988 ft | 433 kts | 147° |
| 2026-04-20 16:18 | 13.19551 | 121.24814 | 24988 ft | 433 kts | 147° |
| 2026-04-20 16:18 | 13.17063 | 121.26549 | 24990 ft | 433 kts | 147° |
| 2026-04-20 16:19 | 13.14610 | 121.28266 | 24992 ft | 433 kts | 146° |
| 2026-04-20 16:19 | 13.12129 | 121.30011 | 24991 ft | 433 kts | 146° |
| 2026-04-20 16:19 | 13.09648 | 121.31759 | 24991 ft | 433 kts | 146° |
| 2026-04-20 16:19 | 13.07163 | 121.33509 | 24992 ft | 433 kts | 146° |
| 2026-04-20 16:20 | 13.04676 | 121.35252 | 24988 ft | 433 kts | 147° |
| 2026-04-20 16:20 | 13.02185 | 121.36990 | 24984 ft | 433 kts | 147° |
| 2026-04-20 16:20 | 12.99695 | 121.38725 | 24984 ft | 433 kts | 147° |
| 2026-04-20 16:20 | 12.97202 | 121.40463 | 24987 ft | 433 kts | 147° |
| 2026-04-20 16:21 | 12.94710 | 121.42200 | 24985 ft | 433 kts | 147° |
| 2026-04-20 16:21 | 12.92220 | 121.43939 | 24985 ft | 433 kts | 147° |
| 2026-04-20 16:21 | 12.89733 | 121.45679 | 24984 ft | 433 kts | 146° |
| 2026-04-20 16:21 | 12.87243 | 121.47422 | 24979 ft | 433 kts | 146° |
| 2026-04-20 16:22 | 12.84756 | 121.49164 | 24982 ft | 433 kts | 146° |
| 2026-04-20 16:22 | 12.82266 | 121.50908 | 24959 ft | 433 kts | 146° |
| 2026-04-20 16:22 | 12.79777 | 121.52650 | 24738 ft | 434 kts | 146° |
| 2026-04-20 16:22 | 12.77283 | 121.54394 | 24516 ft | 433 kts | 146° |
| 2026-04-20 16:23 | 12.74797 | 121.56130 | 24292 ft | 432 kts | 146° |
| 2026-04-20 16:23 | 12.72323 | 121.57854 | 23901 ft | 428 kts | 146° |
| 2026-04-20 16:23 | 12.69867 | 121.59567 | 23216 ft | 426 kts | 146° |
| 2026-04-20 16:23 | 12.67427 | 121.61266 | 22573 ft | 422 kts | 146° |
| 2026-04-20 16:24 | 12.65014 | 121.62948 | 22020 ft | 417 kts | 146° |
| 2026-04-20 16:24 | 12.62660 | 121.64588 | 21469 ft | 413 kts | 146° |
| 2026-04-20 16:24 | 12.60297 | 121.66234 | 20941 ft | 408 kts | 146° |
| 2026-04-20 16:24 | 12.57962 | 121.67861 | 20432 ft | 404 kts | 146° |
| 2026-04-20 16:25 | 12.55646 | 121.69473 | 19926 ft | 400 kts | 146° |
| 2026-04-20 16:25 | 12.53352 | 121.71069 | 19434 ft | 397 kts | 146° |
| 2026-04-20 16:25 | 12.51081 | 121.72651 | 18944 ft | 394 kts | 146° |
| 2026-04-20 16:25 | 12.48825 | 121.74226 | 18443 ft | 392 kts | 145° |
| 2026-04-20 16:26 | 12.46572 | 121.75797 | 17890 ft | 390 kts | 145° |
| 2026-04-20 16:26 | 12.44338 | 121.77355 | 17361 ft | 387 kts | 145° |
| 2026-04-20 16:26 | 12.42116 | 121.78899 | 16851 ft | 385 kts | 145° |
| 2026-04-20 16:26 | 12.39908 | 121.80431 | 16323 ft | 383 kts | 145° |
| 2026-04-20 16:27 | 12.37698 | 121.81938 | 15797 ft | 381 kts | 148° |
| 2026-04-20 16:27 | 12.35307 | 121.83106 | 15244 ft | 382 kts | 159° |
| 2026-04-20 16:27 | 12.32761 | 121.83895 | 14690 ft | 382 kts | 162° |
| 2026-04-20 16:27 | 12.30204 | 121.84652 | 14125 ft | 382 kts | 162° |
| 2026-04-20 16:28 | 12.27650 | 121.85408 | 13531 ft | 382 kts | 162° |
| 2026-04-20 16:28 | 12.25100 | 121.86166 | 12927 ft | 381 kts | 162° |
| 2026-04-20 16:28 | 12.22565 | 121.86921 | 12331 ft | 378 kts | 162° |
| 2026-04-20 16:28 | 12.20430 | 121.87558 | 11849 ft | 376 kts | 162° |
| 2026-04-20 16:29 | 12.17924 | 121.88303 | 11404 ft | 370 kts | 162° |
| 2026-04-20 16:29 | 12.15498 | 121.89024 | 11025 ft | 361 kts | 162° |
| 2026-04-20 16:29 | 12.13099 | 121.89738 | 10711 ft | 352 kts | 162° |
| 2026-04-20 16:29 | 12.10799 | 121.90421 | 10592 ft | 337 kts | 162° |
| 2026-04-20 16:30 | 12.08584 | 121.91072 | 10329 ft | 329 kts | 163° |
| 2026-04-20 16:30 | 12.06319 | 121.91267 | 10091 ft | 325 kts | 184° |
| 2026-04-20 16:30 | 12.04186 | 121.90641 | 9976 ft | 316 kts | 206° |
| 2026-04-20 16:30 | 12.02455 | 121.89314 | 9822 ft | 309 kts | 227° |
| 2026-04-20 16:31 | 12.01159 | 121.87586 | 9358 ft | 311 kts | 233° |
| 2026-04-20 16:31 | 11.99923 | 121.85798 | 9054 ft | 307 kts | 234° |
| 2026-04-20 16:31 | 11.98711 | 121.84013 | 8677 ft | 305 kts | 234° |
| 2026-04-20 16:31 | 11.97509 | 121.82242 | 8164 ft | 301 kts | 234° |
| 2026-04-20 16:32 | 11.96322 | 121.80499 | 7535 ft | 298 kts | 234° |
| 2026-04-20 16:32 | 11.95153 | 121.78789 | 7073 ft | 289 kts | 234° |
| 2026-04-20 16:32 | 11.94023 | 121.77140 | 6670 ft | 278 kts | 234° |
| 2026-04-20 16:32 | 11.92923 | 121.75553 | 6270 ft | 268 kts | 231° |
| 2026-04-20 16:33 | 11.91559 | 121.74356 | 5880 ft | 255 kts | 202° |
| 2026-04-20 16:33 | 11.89864 | 121.73973 | 5505 ft | 249 kts | 174° |
| 2026-04-20 16:33 | 11.88224 | 121.74419 | 5128 ft | 243 kts | 150° |
| 2026-04-20 16:33 | 11.86715 | 121.75201 | 4752 ft | 244 kts | 150° |
| 2026-04-20 16:34 | 11.85202 | 121.75993 | 4368 ft | 244 kts | 146° |
| 2026-04-20 16:34 | 11.84059 | 121.77189 | 3997 ft | 235 kts | 111° |
| 2026-04-20 16:34 | 11.83930 | 121.78803 | 3673 ft | 231 kts | 76° |
| 2026-04-20 16:34 | 11.84507 | 121.80327 | 3348 ft | 230 kts | 64° |
| 2026-04-20 16:35 | 11.85276 | 121.81761 | 3014 ft | 228 kts | 61° |
| 2026-04-20 16:35 | 11.86048 | 121.83111 | 2694 ft | 218 kts | 60° |
| 2026-04-20 16:35 | 11.86792 | 121.84432 | 2401 ft | 214 kts | 61° |
| 2026-04-20 16:35 | 11.87557 | 121.85832 | 2082 ft | 236 kts | 62° |
| 2026-04-20 16:36 | 11.88325 | 121.87272 | 1762 ft | 226 kts | 62° |
| 2026-04-20 16:36 | 11.89039 | 121.88638 | 1448 ft | 207 kts | 62° |
| 2026-04-20 16:36 | 11.89674 | 121.89873 | 1205 ft | 185 kts | 62° |
| 2026-04-20 16:36 | 11.90235 | 121.90976 | 984 ft | 164 kts | 63° |
| 2026-04-20 16:37 | 11.90724 | 121.91942 | 748 ft | 145 kts | 62° |
| 2026-04-20 16:37 | 11.91174 | 121.92838 | 527 ft | 138 kts | 63° |
| 2026-04-20 16:37 | 11.91615 | 121.93703 | 322 ft | 136 kts | 64° |
| 2026-04-20 16:37 | 11.92041 | 121.94560 | 151 ft | 134 kts | 64° |
| 2026-04-20 16:38 | 11.92457 | 121.95396 | 30 ft | 125 kts | 64° |
| 2026-04-20 16:38 | 11.92796 | 121.96077 | 27 ft | 85 kts | 62° |
| 2026-04-20 16:38 | 11.92947 | 121.96378 | 25 ft | 20 kts | 61° |
| 2026-04-20 16:38 | 11.92950 | 121.96462 | 25 ft | 11 kts | 142° |
| 2026-04-20 16:39 | 11.92893 | 121.96492 | 27 ft | 8 kts | 154° |
| 2026-04-20 16:39 | 11.92848 | 121.96515 | 26 ft | 6 kts | 153° |
| 2026-04-20 16:39 | 11.92811 | 121.96524 | 26 ft | 5 kts | 198° |
| 2026-04-20 16:39 | 11.92786 | 121.96496 | 26 ft | 6 kts | 238° |
| 2026-04-20 16:40 | 11.92767 | 121.96460 | 26 ft | 5 kts | 243° |
| 2026-04-20 16:40 | 11.92751 | 121.96429 | 26 ft | 4 kts | 238° |
| 2026-04-20 16:40 | 11.92730 | 121.96427 | 26 ft | 3 kts | 165° |
| 2026-04-20 16:40 | 11.92716 | 121.96433 | 26 ft | 2 kts | 154° |
| 2026-04-20 16:41 | 11.92707 | 121.96438 | 26 ft | 1 kts | 154° |
| 2026-04-20 16:41 | 11.92706 | 121.96438 | 26 ft | 0 kts | 154° |